Latest Weather Observations for Perisher Valley

IDN60801

Issued at 2:33 pm EDT Friday 6 March 2015 (issued every 30 minutes, with the page automatically refreshed every 10 minutes)

About weather observations | Map of weather stations | Latest weather observations for NSW | Other Formats
Station Details ID: 071075 Name: PERISHER VALLEY AWS Lat: -36.41 Lon: 148.41 Height: 1738.0 m
Data from the previous 72 hours. | See also: Recent months at Perisher Valley
Date/Time
EDT
Temp
°C
App
Temp
°C
Dew
Point
Rel
Hum
%
Delta-T
°C
Wind Press
QNH
hPa
Press
MSL
hPa
Rain
since 9 am
mm
Dir
 
Spd
km/h
Gust
km/h
Spd
kts
Gust
kts
06/02:30pm 8.9 2.6 3.9 71 2.4 W 26 54 14 29 - - 0.0
06/02:13pm 8.8 2.1 3.6 70 2.5 W 28 54 15 29 - - 0.0
06/02:00pm 9.8 4.3 4.2 68 2.8 WSW 22 48 12 26 - - 0.0
06/01:35pm 9.7 3.0 3.9 67 2.8 W 28 48 15 26 - - 0.0
06/01:30pm 10.1 4.2 4.0 66 3.0 WSW 24 41 13 22 - - 0.0
06/01:00pm 10.8 5.8 4.7 66 3.1 WSW 20 43 11 23 - - 0.0
06/12:30pm 11.2 5.9 4.9 65 3.2 WSW 22 50 12 27 - - 0.0
06/12:00pm 9.3 4.2 3.9 69 2.6 W 20 32 11 17 - - 0.0
06/11:34am 10.3 3.9 5.1 70 2.6 WSW 28 54 15 29 - - 0.0
06/11:30am 10.0 4.2 4.6 69 2.7 WSW 24 54 13 29 - - 0.0
06/11:00am 10.2 5.4 5.4 72 2.4 WSW 20 50 11 27 - - 0.0
06/10:30am 9.4 4.6 4.8 73 2.3 WSW 19 43 10 23 - - 0.0
06/10:00am 7.6 2.7 4.2 79 1.6 W 19 37 10 20 - - 0.0
06/09:30am 5.6 1.0 1.3 74 1.9 W 15 30 8 16 - - 0.0
06/09:00am 8.4 3.4 3.5 71 2.3 WSW 19 41 10 22 - - 0.0
06/08:30am 8.0 2.3 2.7 69 2.5 W 22 41 12 22 - - 0.0
06/08:00am 5.6 -1.5 1.3 74 1.9 W 28 46 15 25 - - 0.0
06/07:30am 4.5 -3.3 -0.9 68 2.2 W 30 52 16 28 - - 0.0
06/07:00am 2.6 -5.0 -2.1 71 1.9 W 28 50 15 27 - - 0.0
06/06:31am 2.4 -5.2 -2.3 71 1.8 W 28 52 15 28 - - 0.0
06/06:30am 2.2 -5.1 -2.5 71 1.8 W 26 52 14 28 - - 0.0
06/06:00am 2.1 -6.6 -3.2 68 2.0 W 33 56 18 30 - - 0.0
06/05:46am 1.8 -5.9 -3.1 70 2.0 W 28 50 15 27 - - 0.0
06/05:30am 1.9 -5.1 -3.6 67 2.2 W 24 41 13 22 - - 0.0
06/05:00am 2.2 -5.2 -3.7 65 2.4 W 26 48 14 26 - - 0.0
06/04:31am 2.6 -5.2 -4.1 61 2.5 W 28 50 15 27 - - 0.0
06/04:30am 2.5 -4.9 -4.0 62 2.4 W 26 50 14 27 - - 0.0
06/04:05am 3.0 -4.8 -4.2 59 2.7 W 28 56 15 30 - - 0.0
06/04:00am 2.9 -4.6 -4.1 60 2.6 W 26 54 14 29 - - 0.0
06/03:30am 2.5 -6.1 -4.2 61 2.7 W 32 59 17 32 - - 0.0
06/03:00am 2.5 -5.8 -4.5 60 2.7 W 30 65 16 35 - - 0.0
06/02:30am 2.9 -6.4 -5.0 56 3.1 W 35 61 19 33 - - 0.0
06/02:07am 2.9 -5.1 -6.2 51 3.4 W 28 52 15 28 - - 0.0
06/02:00am 2.9 -4.8 -6.5 50 3.5 W 26 61 14 33 - - 0.0
06/01:30am 2.9 -5.5 -5.5 54 3.2 W 30 56 16 30 - - 0.0
06/01:00am 3.0 -7.4 -5.1 55 3.0 WNW 41 65 22 35 - - 0.0
06/12:30am 3.3 -4.6 -5.1 54 3.1 W 28 59 15 32 - - 0.0
06/12:26am 3.5 -4.4 -5.2 53 3.2 W 28 59 15 32 - - 0.0
06/12:00am 3.7 -3.9 -5.2 52 3.3 W 26 44 14 24 - - 0.0
 
Date/Time
EDT
Temp
°C
App
Temp
°C
Dew
Point
Rel
Hum
%
Delta-T
°C
Wind Press
QNH
hPa
Press
MSL
hPa
Rain
since 9 am
mm
Dir
 
Spd
km/h
Gust
km/h
Spd
kts
Gust
kts
05/11:30pm 4.4 -2.4 -5.6 48 3.7 W 22 43 12 23 - - 0.0
05/11:00pm 4.7 -2.2 -5.9 46 3.9 W 22 50 12 27 - - 0.0
05/10:30pm 5.0 -1.0 -6.5 43 4.2 W 17 37 9 20 - - 0.0
05/10:00pm 5.4 -0.6 -7.1 40 4.5 W 17 37 9 20 - - 0.0
05/09:30pm 5.1 0.5 -7.4 40 4.5 WSW 9 20 5 11 - - 0.0
05/09:00pm 4.7 0.1 -8.0 39 4.4 WSW 9 20 5 11 - - 0.0
05/08:30pm 4.8 0.8 -5.8 46 3.9 WSW 7 20 4 11 - - 0.0
05/08:00pm 4.0 0.6 -4.9 52 3.3 W 4 11 2 6 - - 0.0
05/07:30pm 5.3 1.5 -5.7 45 4.1 WSW 6 15 3 8 - - 0.0
05/07:00pm 5.9 1.9 -5.7 43 4.4 WSW 7 20 4 11 - - 0.0
05/06:30pm 7.7 2.8 -7.1 34 5.5 WSW 11 28 6 15 - - 0.0
05/06:00pm 8.3 3.6 -5.5 37 5.4 WSW 11 28 6 15 - - 0.0
05/05:30pm 8.5 3.0 -5.3 37 5.4 SW 15 33 8 18 - - 0.0
05/05:00pm 8.9 3.4 -5.7 35 5.7 SW 15 35 8 19 - - 0.0
05/04:30pm 9.0 3.4 -6.4 33 5.9 SW 15 43 8 23 - - 0.0
05/04:00pm 8.8 2.2 -8.7 28 6.3 WSW 19 46 10 25 - - 0.0
05/03:30pm 8.8 2.9 -5.4 36 5.6 SW 17 39 9 21 - - 0.0
05/03:00pm 8.8 3.9 -3.1 43 4.9 WSW 13 37 7 20 - - 0.0
05/02:30pm 9.1 4.2 -3.1 42 5.1 SW 13 33 7 18 - - 0.0
05/02:00pm 8.2 3.2 -3.9 42 4.9 SW 13 33 7 18 - - 0.0
05/01:30pm 8.9 2.7 -3.0 43 4.9 SSW 20 41 11 22 - - 0.0
05/01:00pm 8.4 3.8 -3.7 42 4.9 SW 11 26 6 14 - - 0.0
05/12:30pm 7.5 1.7 -4.2 43 4.6 WSW 17 35 9 19 - - 0.0
05/12:00pm 7.4 1.2 -5.3 40 4.9 WSW 19 44 10 24 - - 0.0
05/11:30am 7.7 2.4 -3.8 44 4.6 SW 15 32 8 17 - - 0.0
05/11:00am 8.3 3.7 -3.8 42 4.9 SW 11 33 6 18 - - 0.0
05/10:30am 7.6 2.4 -5.8 38 5.1 SW 13 32 7 17 - - 0.0
05/10:00am 8.4 3.8 1.8 63 3.0 SW 15 39 8 21 - - 0.0
05/09:30am 7.5 3.0 2.4 70 2.4 WSW 15 33 8 18 - - 0.0
05/09:00am 6.9 2.4 2.0 71 2.2 WSW 15 37 8 20 - - 0.0
05/08:30am 6.0 1.1 2.1 76 1.8 WSW 17 41 9 22 - - 0.0
05/08:03am 6.1 -0.9 2.2 76 1.8 WSW 28 54 15 29 - - 0.0
05/08:00am 6.1 -0.1 2.4 77 1.7 WSW 24 50 13 27 - - 0.0
05/07:30am 5.8 0.4 2.4 79 1.6 W 20 37 11 20 - - 0.0
05/07:00am 5.4 0.3 2.9 84 1.2 W 19 37 10 20 - - 0.0
05/06:30am 5.5 -0.2 2.8 83 1.2 W 22 52 12 28 - - 0.0
05/06:06am 5.8 -1.1 2.3 78 1.6 WNW 28 52 15 28 - - 0.0
05/06:00am 5.5 -1.0 2.8 83 1.2 WNW 26 50 14 27 - - 0.0
05/05:45am 5.8 -1.1 2.8 81 1.4 WNW 28 67 15 36 - - 0.0
05/05:30am 5.8 -0.3 2.8 81 1.4 W 24 67 13 36 - - 0.0
05/05:00am 6.3 -3.1 2.4 76 1.8 WNW 41 70 22 38 - - 0.0
05/04:30am 6.6 -3.7 2.7 76 1.8 WNW 46 80 25 43 - - 0.0
05/04:00am 7.1 -4.2 3.2 76 1.8 WNW 52 80 28 43 - - 0.0
05/03:30am 7.3 -2.6 2.8 73 2.1 WNW 44 76 24 41 - - 0.0
05/03:00am 7.5 -1.2 2.0 68 2.5 WNW 37 65 20 35 - - 0.0
05/02:30am 8.0 -2.7 0.3 58 3.4 WNW 46 80 25 43 - - 0.0
05/02:00am 8.4 -2.5 -0.9 52 4.0 WNW 46 72 25 39 - - 0.0
05/01:30am 9.0 -2.4 -2.0 46 4.7 W 48 80 26 43 - - 0.0
05/01:00am 9.3 -1.1 -2.0 45 4.8 WNW 43 72 23 39 - - 0.0
05/12:30am 9.5 0.6 -1.8 45 4.8 WNW 35 72 19 39 - - 0.0
05/12:00am 9.7 1.8 -1.9 44 5.0 WNW 30 57 16 31 - - 0.0
 
Date/Time
EDT
Temp
°C
App
Temp
°C
Dew
Point
Rel
Hum
%
Delta-T
°C
Wind Press
QNH
hPa
Press
MSL
hPa
Rain
since 9 am
mm
Dir
 
Spd
km/h
Gust
km/h
Spd
kts
Gust
kts
04/11:30pm 10.1 1.2 -1.9 43 5.2 WNW 35 59 19 32 - - 0.0
04/11:12pm 10.0 2.4 -2.0 43 5.1 WNW 28 52 15 28 - - 0.0
04/11:00pm 10.1 3.3 -2.2 42 5.3 WNW 24 50 13 27 - - 0.0
04/10:30pm 10.4 5.2 -2.9 39 5.6 WNW 15 41 8 22 - - 0.0
04/10:00pm 10.8 5.1 -4.0 35 6.1 WNW 17 37 9 20 - - 0.0
04/09:30pm 11.2 5.3 -5.7 30 6.7 W 17 35 9 19 - - 0.0
04/09:00pm 11.3 5.4 -5.6 30 6.8 W 17 39 9 21 - - 0.0
04/08:30pm 11.9 5.7 -5.1 30 6.9 WNW 19 35 10 19 - - 0.0
04/08:00pm 12.5 4.2 -5.0 29 7.2 W 30 46 16 25 - - 0.0
04/07:30pm 12.6 6.8 -4.5 30 7.1 W 17 35 9 19 - - 0.0
04/07:00pm 13.5 7.2 -3.7 30 7.3 W 20 43 11 23 - - 0.0
04/06:30pm 14.8 9.2 -3.0 29 7.8 W 17 33 9 18 - - 0.0
04/06:00pm 15.3 8.7 -3.6 27 8.2 WNW 22 56 12 30 - - 0.0
04/05:30pm 15.7 9.6 -2.7 28 8.2 WNW 20 37 11 20 - - 0.0
04/05:00pm 15.6 8.3 -0.2 34 7.4 W 28 44 15 24 - - 0.0
04/04:30pm 15.8 9.9 -0.8 32 7.7 W 20 44 11 24 - - 0.0
04/04:00pm 15.6 9.5 0.6 36 7.1 W 22 39 12 21 - - 0.0
04/03:30pm 15.5 8.9 -0.7 33 7.5 W 24 37 13 20 - - 0.0
04/03:00pm 15.9 9.6 -4.1 25 8.7 WNW 20 35 11 19 - - 0.0
04/02:30pm 16.1 10.1 -3.4 26 8.6 W 19 32 10 17 - - 0.0
04/02:00pm 16.3 10.0 -5.4 22 9.2 W 19 32 10 17 - - 0.0
04/01:30pm 16.2 10.9 -7.4 19 9.6 WNW 13 26 7 14 - - 0.0
04/01:00pm 15.8 10.1 -7.1 20 9.3 WNW 15 26 8 14 - - 0.0
04/12:30pm 16.3 10.8 -9.5 16 10.0 W 13 28 7 15 - - 0.0
04/12:00pm 16.1 10.8 -6.8 20 9.4 WNW 13 24 7 13 - - 0.0
04/11:30am 15.7 10.1 -5.9 22 9.0 WNW 15 26 8 14 - - 0.0
04/11:00am 14.9 9.3 -6.0 23 8.6 WNW 15 24 8 13 - - 0.0
04/10:30am 14.6 9.1 -5.7 24 8.4 W 15 28 8 15 - - 0.0
04/10:00am 14.2 8.8 -4.5 27 7.9 W 15 28 8 15 - - 0.0
04/09:30am 13.3 8.3 -1.4 36 6.6 W 15 28 8 15 - - 0.0
04/09:00am 12.7 6.9 -1.6 37 6.3 W 19 28 10 15 - - 0.0
04/08:30am 12.2 6.5 -0.6 41 5.8 W 19 28 10 15 - - 0.0
04/08:00am 11.8 6.1 -0.7 42 5.6 W 19 28 10 15 - - 0.0
04/07:30am 10.9 6.1 0.3 48 4.8 W 15 28 8 15 - - 0.0
04/07:00am 9.9 5.3 1.3 55 4.0 W 15 30 8 16 - - 0.0
04/06:30am 10.3 5.1 2.7 59 3.6 W 19 30 10 16 - - 0.0
04/06:00am 10.5 5.4 3.1 60 3.6 W 19 28 10 15 - - 0.0
04/05:30am 11.0 5.6 2.3 55 4.1 W 20 32 11 17 - - 0.0
04/05:00am 10.9 5.6 3.0 58 3.8 W 20 32 11 17 - - 0.0
04/04:30am 11.2 6.0 3.3 58 3.8 W 20 28 11 15 - - 0.0
04/04:00am 11.4 6.0 2.7 55 4.2 W 20 30 11 16 - - 0.0
04/03:30am 11.4 6.3 3.2 57 4.0 W 19 30 10 16 - - 0.0
04/03:00am 11.6 6.6 3.4 57 4.0 W 19 32 10 17 - - 0.0
04/02:30am 11.2 6.7 4.2 62 3.5 W 17 30 9 16 - - 0.0
04/02:00am 11.3 7.2 4.5 63 3.4 W 15 26 8 14 - - 0.0
04/01:30am 11.7 7.0 5.1 64 3.3 W 19 26 10 14 - - 0.0
04/01:00am 11.9 7.3 5.5 65 3.3 W 19 26 10 14 - - 0.0
04/12:30am 12.0 7.8 5.6 65 3.3 W 17 24 9 13 - - 0.0
04/12:00am 12.3 8.9 5.9 65 3.3 W 13 22 7 12 - - 0.0
 
Date/Time
EDT
Temp
°C
App
Temp
°C
Dew
Point
Rel
Hum
%
Delta-T
°C
Wind Press
QNH
hPa
Press
MSL
hPa
Rain
since 9 am
mm
Dir
 
Spd
km/h
Gust
km/h
Spd
kts
Gust
kts
03/11:30pm 12.1 9.5 6.2 67 3.1 W 9 17 5 9 - - 0.0
03/11:00pm 11.8 9.6 6.3 69 2.9 W 7 13 4 7 - - 0.0
03/10:30pm 9.6 7.9 6.0 78 1.8 NNW 4 7 2 4 - - 0.0
03/10:00pm 10.1 8.8 6.1 76 2.1 WNW 2 7 1 4 - - 0.0
03/09:30pm 9.2 7.5 6.1 81 1.6 NW 4 9 2 5 - - 0.0
03/09:00pm 8.6 6.9 5.9 83 1.4 SW 4 7 2 4 - - 0.0
03/08:30pm 9.6 8.2 5.6 76 2.0 S 2 4 1 2 - - 0.0
03/08:00pm 11.5 9.8 6.0 69 2.8 W 4 7 2 4 - - 0.0
03/07:30pm 14.0 11.9 6.6 61 3.9 W 7 11 4 6 - - 0.0
03/07:00pm 14.3 13.0 6.2 58 4.3 NW 2 6 1 3 - - 0.0
03/06:30pm 14.9 12.6 5.7 54 4.8 W 7 13 4 7 - - 0.0
03/06:00pm 15.8 13.3 4.8 48 5.7 WNW 7 22 4 12 - - 0.0
03/05:30pm 17.1 14.3 5.1 45 6.3 W 9 17 5 9 - - 0.0
03/05:00pm 16.8 13.8 6.0 49 5.8 WNW 11 20 6 11 - - 0.0
03/04:30pm 17.2 14.7 6.4 49 5.8 W 9 20 5 11 - - 0.0
03/04:00pm 17.6 14.8 6.8 49 5.9 W 11 19 6 10 - - 0.0
03/03:30pm 16.8 14.3 6.6 51 5.5 W 9 20 5 11 - - 0.0
03/03:00pm 16.3 14.0 5.9 50 5.5 WNW 7 20 4 11 - - 0.0

Other Formats:

Comma delimited format used in spreadsheet applications
http://www.bom.gov.au/fwo/IDN60801/IDN60801.94915.axf

JavaScript Object Notation format (JSON) in row-major order
http://www.bom.gov.au/fwo/IDN60801/IDN60801.94915.json